createdAt,value
2019-04-16T00:02:57.599Z,1021.3
2019-04-16T00:07:57.483Z,1021.3
2019-04-16T00:12:57.324Z,1021.3
2019-04-16T00:17:57.334Z,1021.2
2019-04-16T00:22:57.629Z,1021.1
2019-04-16T00:28:01.353Z,1021.1
2019-04-16T00:32:57.351Z,1021
2019-04-16T00:37:57.586Z,1020.9
2019-04-16T00:42:57.662Z,1020.8
2019-04-16T00:47:57.324Z,1020.9
2019-04-16T00:52:57.369Z,1020.7
2019-04-16T00:57:57.379Z,1020.9
2019-04-16T01:02:57.356Z,1020.8
2019-04-16T01:07:57.338Z,1020.7
2019-04-16T01:12:57.367Z,1020.7
2019-04-16T01:17:57.360Z,1020.7
2019-04-16T01:22:57.443Z,1020.7
2019-04-16T01:28:01.544Z,1020.6
2019-04-16T01:32:57.367Z,1020.6
2019-04-16T01:37:58.211Z,1020.6
2019-04-16T01:42:57.395Z,1020.6
2019-04-16T01:47:57.414Z,1020.6
2019-04-16T01:52:57.388Z,1020.6
2019-04-16T01:58:04.106Z,1020.6
2019-04-16T02:02:57.401Z,1020.4
2019-04-16T02:08:00.537Z,1020.4
2019-04-16T02:12:57.371Z,1020.3
2019-04-16T02:18:00.315Z,1020.3
2019-04-16T02:22:57.403Z,1020.3
2019-04-16T02:27:58.225Z,1020.2
2019-04-16T02:32:57.437Z,1020.3
2019-04-16T02:37:57.407Z,1020.3
2019-04-16T02:43:08.259Z,1020.4
2019-04-16T02:47:57.389Z,1020.4
2019-04-16T02:52:57.404Z,1020.5
2019-04-16T02:58:02.620Z,1020.4
2019-04-16T03:02:57.433Z,1020.5
2019-04-16T03:07:57.416Z,1020.5
2019-04-16T03:12:57.392Z,1020.5
2019-04-16T03:17:57.432Z,1020.4
2019-04-16T03:22:57.406Z,1020.4
2019-04-16T03:27:57.415Z,1020.5
2019-04-16T03:32:57.438Z,1020.6
2019-04-16T03:37:57.464Z,1020.5
2019-04-16T03:43:04.591Z,1020.6
2019-04-16T03:47:57.587Z,1020.7
2019-04-16T03:52:57.420Z,1020.6
2019-04-16T03:57:57.435Z,1020.8
2019-04-16T04:02:57.446Z,1020.7
2019-04-16T04:07:57.459Z,1020.7
2019-04-16T04:12:57.424Z,1020.8
2019-04-16T04:17:57.469Z,1021
2019-04-16T04:22:58.298Z,1021.1
2019-04-16T04:27:57.465Z,1021.1
2019-04-16T04:32:57.533Z,1021.2
2019-04-16T04:37:57.427Z,1021.3
2019-04-16T04:43:01.895Z,1021.3
2019-04-16T04:47:57.470Z,1021.3
2019-04-16T04:52:57.457Z,1021.4
2019-04-16T04:57:57.457Z,1021.4
2019-04-16T05:02:57.470Z,1021.4
2019-04-16T05:08:00.932Z,1021.4
2019-04-16T05:12:57.465Z,1021.5
2019-04-16T05:17:57.469Z,1021.4
2019-04-16T05:22:58.499Z,1021.4
2019-04-16T05:27:57.510Z,1021.5
2019-04-16T05:32:57.500Z,1021.4
2019-04-16T05:37:57.517Z,1021.4
2019-04-16T05:42:59.910Z,1021.3
2019-04-16T05:47:57.477Z,1021.4
2019-04-16T05:52:57.482Z,1021.3
2019-04-16T05:57:59.259Z,1021.3
2019-04-16T06:02:57.497Z,1021.2
2019-04-16T06:07:57.493Z,1021.1
2019-04-16T06:12:57.527Z,1021.1
2019-04-16T06:17:57.548Z,1021.1
2019-04-16T06:23:01.803Z,1021
2019-04-16T06:27:57.516Z,1021
2019-04-16T06:32:57.508Z,1021
2019-04-16T06:37:57.491Z,1020.9
2019-04-16T06:42:57.497Z,1020.8
2019-04-16T06:47:57.564Z,1020.7
2019-04-16T06:52:57.512Z,1020.8
2019-04-16T06:57:57.634Z,1020.7
2019-04-16T07:03:03.345Z,1020.5
2019-04-16T07:07:57.551Z,1020.5
2019-04-16T07:12:57.556Z,1020.6
2019-04-16T07:17:57.515Z,1020.4
2019-04-16T07:22:57.531Z,1020.4
2019-04-16T07:27:59.293Z,1020.5
2019-04-16T07:33:01.565Z,1020.4
2019-04-16T07:37:57.556Z,1020.3
2019-04-16T07:42:59.688Z,1020.3
2019-04-16T07:47:57.846Z,1020.3
2019-04-16T07:52:57.555Z,1020.3
2019-04-16T07:57:57.530Z,1020.1
2019-04-16T08:02:57.883Z,1020.1
2019-04-16T08:07:57.561Z,1020
2019-04-16T08:13:02.060Z,1020
2019-04-16T08:17:57.985Z,1020
2019-04-16T08:22:57.824Z,1020.1
2019-04-16T08:27:57.558Z,1020.1
2019-04-16T08:32:57.579Z,1020.1
2019-04-16T08:37:59.444Z,1020
2019-04-16T08:42:58.926Z,1020
2019-04-16T08:47:57.575Z,1020.1
2019-04-16T08:52:57.524Z,1020
2019-04-16T08:57:57.581Z,1020
2019-04-16T09:02:59.725Z,1020
2019-04-16T09:08:14.219Z,1019.8
2019-04-16T09:13:05.689Z,1019.8
2019-04-16T09:17:57.596Z,1019.7
2019-04-16T09:22:59.619Z,1019.8
2019-04-16T09:28:02.481Z,1019.9
2019-04-16T09:33:02.712Z,1019.7
2019-04-16T09:37:57.608Z,1019.7
2019-04-16T09:42:57.613Z,1019.7
2019-04-16T09:47:57.622Z,1019.6
2019-04-16T09:52:57.632Z,1019.7
2019-04-16T09:57:57.641Z,1019.6
2019-04-16T10:02:57.627Z,1019.6
2019-04-16T10:07:57.642Z,1019.5
2019-04-16T10:12:57.638Z,1019.5
2019-04-16T10:18:02.587Z,1019.5
2019-04-16T10:22:57.670Z,1019.5
2019-04-16T10:27:57.679Z,1019.4
2019-04-16T10:32:57.827Z,1019.4
2019-04-16T10:37:57.755Z,1019.4
2019-04-16T10:42:57.632Z,1019.3
2019-04-16T10:47:57.651Z,1019.2
2019-04-16T10:52:57.725Z,1019.2
2019-04-16T10:57:57.714Z,1019.3
2019-04-16T11:02:57.681Z,1019.2
2019-04-16T11:07:57.681Z,1019.3
2019-04-16T11:12:57.684Z,1019.1
2019-04-16T11:17:57.766Z,1019.2
2019-04-16T11:22:57.719Z,1019.1
2019-04-16T11:27:57.749Z,1019
2019-04-16T11:32:57.750Z,1019
2019-04-16T11:37:57.672Z,1019.1
2019-04-16T11:42:57.756Z,1019
2019-04-16T11:47:57.724Z,1018.9
2019-04-16T11:52:59.049Z,1018.9
2019-04-16T11:57:57.964Z,1018.9
2019-04-16T12:02:57.747Z,1018.8
2019-04-16T12:07:57.754Z,1018.7
2019-04-16T12:12:57.743Z,1018.7
2019-04-16T12:17:57.705Z,1018.6
2019-04-16T12:22:57.688Z,1018.5
2019-04-16T12:27:57.715Z,1018.5
2019-04-16T12:32:57.771Z,1018.4
2019-04-16T12:37:57.738Z,1018.4
2019-04-16T12:42:57.737Z,1018.3
2019-04-16T12:47:59.784Z,1018.3
2019-04-16T12:52:57.760Z,1018.3
2019-04-16T12:57:59.522Z,1018.2
2019-04-16T13:02:57.716Z,1018.1
2019-04-16T13:07:57.696Z,1018.2
2019-04-16T13:12:57.716Z,1018.1
2019-04-16T13:17:57.715Z,1018.1
2019-04-16T13:22:57.708Z,1018.1
2019-04-16T13:27:57.889Z,1018.1
2019-04-16T13:32:57.722Z,1017.9
2019-04-16T13:37:57.716Z,1017.8
2019-04-16T13:42:57.727Z,1017.9
2019-04-16T13:48:13.561Z,1017.8
2019-04-16T13:52:57.737Z,1017.9
2019-04-16T13:57:57.802Z,1017.8
2019-04-16T14:02:57.818Z,1017.8
2019-04-16T14:07:57.834Z,1017.8
2019-04-16T14:12:57.839Z,1017.8
2019-04-16T14:18:01.556Z,1017.8
2019-04-16T14:22:57.831Z,1017.7
2019-04-16T14:28:04.250Z,1017.8
2019-04-16T14:33:00.599Z,1017.9
2019-04-16T14:38:00.590Z,1017.9
2019-04-16T14:43:00.594Z,1017.8
2019-04-16T14:48:00.531Z,1017.8
2019-04-16T14:53:00.947Z,1017.9
2019-04-16T14:58:00.559Z,1017.8
2019-04-16T15:03:00.603Z,1017.9
2019-04-16T15:08:00.609Z,1017.8
2019-04-16T15:13:00.724Z,1017.9
2019-04-16T15:18:00.594Z,1017.9
2019-04-16T15:23:00.578Z,1017.8
2019-04-16T15:28:00.808Z,1017.8
2019-04-16T15:33:07.495Z,1017.9
2019-04-16T15:38:00.638Z,1017.9
2019-04-16T15:43:00.659Z,1018
2019-04-16T15:48:00.678Z,1017.9
2019-04-16T15:53:00.597Z,1018.2
2019-04-16T15:58:00.625Z,1018.2
2019-04-16T16:03:00.622Z,1018.2
2019-04-16T16:08:03.302Z,1018.2
2019-04-16T16:13:00.616Z,1018.2
2019-04-16T16:18:00.625Z,1018.3
2019-04-16T16:23:00.628Z,1018.3
2019-04-16T16:28:00.628Z,1018.3
2019-04-16T16:33:00.944Z,1018.4
2019-04-16T16:38:02.510Z,1018.5
2019-04-16T16:43:09.005Z,1018.5
2019-04-16T16:48:02.517Z,1018.5
2019-04-16T16:53:03.032Z,1018.6
2019-04-16T16:58:02.522Z,1018.6
2019-04-16T17:03:02.539Z,1018.6
2019-04-16T17:08:02.636Z,1018.8
2019-04-16T17:13:02.715Z,1018.8
2019-04-16T17:18:02.602Z,1018.9
2019-04-16T17:23:02.607Z,1018.8
2019-04-16T17:28:02.924Z,1018.9
2019-04-16T17:33:02.542Z,1019
2019-04-16T17:38:04.464Z,1019.1
2019-04-16T17:43:02.595Z,1019.2
2019-04-16T17:48:02.835Z,1019.2
2019-04-16T17:53:02.876Z,1019.5
2019-04-16T17:58:02.554Z,1019.5
2019-04-16T18:03:05.420Z,1019.7
2019-04-16T18:08:03.409Z,1019.8
2019-04-16T18:13:06.369Z,1019.9
2019-04-16T18:18:02.980Z,1019.9
2019-04-16T18:23:02.864Z,1019.9
2019-04-16T18:28:07.471Z,1020.1
2019-04-16T18:33:08.221Z,1020.1
2019-04-16T18:38:02.643Z,1020.2
2019-04-16T18:43:03.248Z,1020.2
2019-04-16T18:48:14.329Z,1020.3
2019-04-16T18:53:02.649Z,1020.4
2019-04-16T18:58:04.008Z,1020.4
2019-04-16T19:03:02.797Z,1020.6
2019-04-16T19:08:03.420Z,1020.6
2019-04-16T19:13:11.635Z,1020.7
2019-04-16T19:18:21.108Z,1020.9
2019-04-16T19:23:02.777Z,1020.9
2019-04-16T19:28:07.544Z,1020.9
2019-04-16T19:33:03.031Z,1020.9
2019-04-16T19:38:07.967Z,1021.1
2019-04-16T19:43:04.982Z,1021
2019-04-16T19:48:05.441Z,1021.1
2019-04-16T19:53:04.548Z,1021.1
2019-04-16T19:58:04.400Z,1021.1
2019-04-16T20:03:04.425Z,1021.2
2019-04-16T20:08:04.634Z,1021.2
2019-04-16T20:13:04.508Z,1021.2
2019-04-16T20:18:07.589Z,1021.4
2019-04-16T20:23:04.415Z,1021.4
2019-04-16T20:28:09.274Z,1021.4
2019-04-16T20:33:04.312Z,1021.4
2019-04-16T20:38:04.315Z,1021.4
2019-04-16T20:43:03.792Z,1021.6
2019-04-16T20:48:03.591Z,1021.6
2019-04-16T20:53:09.343Z,1021.7
2019-04-16T20:58:03.498Z,1021.7
2019-04-16T21:03:04.777Z,1021.8
2019-04-16T21:08:03.630Z,1021.8
2019-04-16T21:13:03.884Z,1021.9
2019-04-16T21:18:03.992Z,1022
2019-04-16T21:23:04.388Z,1022
2019-04-16T21:28:03.542Z,1022
2019-04-16T21:33:03.735Z,1022
2019-04-16T21:38:03.519Z,1022.1
2019-04-16T21:43:09.120Z,1022.1
2019-04-16T21:48:03.888Z,1022.1
2019-04-16T21:53:03.900Z,1022.2
2019-04-16T21:58:03.539Z,1022.1
2019-04-16T22:03:10.674Z,1022.1
2019-04-16T22:08:03.552Z,1022.2
2019-04-16T22:13:03.499Z,1022.3
2019-04-16T22:18:10.269Z,1022.3
2019-04-16T22:23:03.560Z,1022.3
2019-04-16T22:28:03.569Z,1022.4
2019-04-16T22:33:07.900Z,1022.4
2019-04-16T22:38:03.553Z,1022.4
2019-04-16T22:43:09.290Z,1022.4
2019-04-16T22:48:03.583Z,1022.5
2019-04-16T22:53:04.004Z,1022.5
2019-04-16T22:58:05.622Z,1022.5
2019-04-16T23:03:03.613Z,1022.5
2019-04-16T23:08:03.581Z,1022.6
2019-04-16T23:13:03.605Z,1022.6
2019-04-16T23:18:03.551Z,1022.7
2019-04-16T23:23:03.569Z,1022.7
2019-04-16T23:28:10.611Z,1022.6
2019-04-16T23:33:03.764Z,1022.7
2019-04-16T23:38:03.864Z,1022.6
2019-04-16T23:43:03.572Z,1022.6
2019-04-16T23:48:03.611Z,1022.6
2019-04-16T23:53:09.516Z,1022.6
2019-04-16T23:58:03.637Z,1022.6
